Time;durP1;ratioP1;P1;durP2;ratioP2;P2;SDS_P1;SDS_P2;PMS_P1;PMS_P2;Temp;Humidity;BMP_temperature;BMP_pressure;BME280_temperature;BME280_humidity;BME280_pressure;Samples;Min_cycle;Max_cycle;Signal;HPM_P1;HPM_P2
2021/04/21 20:12:40;;;;;;;17.70;8.85;;;13.90;78.60;;;;;;5816948;23;20119;-72
2021/04/21 20:15:07;;;;;;;13.80;9.45;;;13.70;79.20;;;;;;4881299;29;20035;-79
2021/04/21 20:17:34;;;;;;;15.73;8.90;;;13.70;79.50;;;;;;4868304;29;20102;-78
2021/04/21 20:20:00;;;;;;;15.23;9.45;;;13.70;79.30;;;;;;4882907;29;20063;-82
2021/04/21 20:22:25;;;;;;;16.98;9.60;;;13.60;79.40;;;;;;4891280;29;20885;-76
2021/04/21 20:24:52;;;;;;;14.02;9.23;;;13.60;79.50;;;;;;4882625;29;20868;-77
2021/04/21 20:27:18;;;;;;;15.55;10.10;;;13.60;79.90;;;;;;4889525;29;20028;-77
2021/04/21 20:29:47;;;;;;;15.68;9.88;;;13.60;80.00;;;;;;4893285;29;20703;-77
2021/04/21 20:32:12;;;;;;;14.30;9.50;;;13.60;80.10;;;;;;4887022;29;20108;-78
2021/04/21 20:34:41;;;;;;;12.70;8.85;;;13.50;80.80;;;;;;4892854;29;20111;-80
2021/04/21 20:37:08;;;;;;;14.63;10.48;;;13.40;80.90;;;;;;4890839;29;20151;-79
2021/04/21 20:39:34;;;;;;;16.48;10.98;;;13.50;81.00;;;;;;4887914;29;20474;-79
2021/04/21 20:41:59;;;;;;;18.20;11.23;;;13.40;81.10;;;;;;4871701;29;20112;-79
2021/04/21 20:44:47;;;;;;;15.30;9.80;;;13.40;81.10;;;;;;5009907;23;20542;-79
2021/04/21 20:47:14;;;;;;;13.65;9.90;;;13.40;81.80;;;;;;4908053;29;20740;-78
2021/04/21 20:49:40;;;;;;;14.75;9.88;;;13.40;82.10;;;;;;4897084;29;20059;-79
2021/04/21 20:52:06;;;;;;;14.35;10.68;;;13.30;83.30;;;;;;4916106;29;20067;-78
2021/04/21 20:54:35;;;;;;;18.25;10.57;;;13.30;82.50;;;;;;4914657;29;20047;-79
2021/04/21 20:57:01;;;;;;;19.17;11.70;;;13.20;83.10;;;;;;4913684;29;20028;-78
2021/04/21 20:59:28;;;;;;;16.48;10.07;;;13.20;83.50;;;;;;4911868;29;20040;-77
2021/04/21 21:01:54;;;;;;;14.63;9.45;;;13.20;83.90;;;;;;4917372;29;20059;-77
2021/04/21 21:04:20;;;;;;;17.45;10.98;;;13.10;84.10;;;;;;4896525;29;20087;-79
2021/04/21 21:06:47;;;;;;;16.38;10.80;;;13.00;84.50;;;;;;4917609;29;20024;-78
2021/04/21 21:09:14;;;;;;;17.27;11.57;;;12.90;84.70;;;;;;4915159;29;20461;-78
2021/04/21 21:11:41;;;;;;;15.82;10.40;;;12.90;84.60;;;;;;4908702;29;20016;-77
2021/04/21 21:14:07;;;;;;;18.20;12.07;;;13.00;84.70;;;;;;4925148;29;20120;-79
2021/04/21 21:16:32;;;;;;;15.35;10.95;;;12.90;84.70;;;;;;4914328;29;20128;-78
2021/04/21 21:18:58;;;;;;;13.70;10.60;;;12.90;85.00;;;;;;4922728;29;20024;-82
2021/04/21 21:21:24;;;;;;;16.70;10.82;;;12.80;85.30;;;;;;4914573;29;20028;-81
2021/04/21 21:23:49;;;;;;;16.15;11.27;;;12.70;85.60;;;;;;4914606;29;20028;-78
2021/04/21 21:26:15;;;;;;;21.42;12.05;;;12.70;86.20;;;;;;4914588;29;20024;-79
2021/04/21 21:28:41;;;;;;;17.25;11.38;;;12.70;86.20;;;;;;4924216;29;20106;-79
2021/04/21 21:31:07;;;;;;;16.48;10.88;;;12.70;85.90;;;;;;4929885;29;20031;-80
2021/04/21 21:33:33;;;;;;;16.90;11.65;;;12.70;85.90;;;;;;4923657;29;20031;-82
2021/04/21 21:35:59;;;;;;;15.52;11.00;;;12.70;86.40;;;;;;4913081;29;20635;-79
2021/04/21 21:38:26;;;;;;;13.98;11.18;;;12.60;86.50;;;;;;4933807;29;20034;-78
2021/04/21 21:40:52;;;;;;;21.65;13.27;;;12.70;86.40;;;;;;4923620;29;20020;-78
2021/04/21 21:43:18;;;;;;;19.17;11.95;;;12.60;86.40;;;;;;4896976;29;20028;-78
2021/04/21 21:45:44;;;;;;;19.13;12.05;;;12.50;86.50;;;;;;4921365;29;20527;-79
2021/04/21 21:48:11;;;;;;;18.88;12.27;;;12.50;86.60;;;;;;4913289;29;20024;-79
2021/04/21 21:50:37;;;;;;;20.55;12.35;;;12.50;86.80;;;;;;4907693;29;20032;-80
2021/04/21 21:53:03;;;;;;;22.27;12.32;;;12.50;86.80;;;;;;4914202;29;20083;-80
2021/04/21 21:55:29;;;;;;;20.02;13.05;;;12.50;87.00;;;;;;4914230;29;20392;-79
2021/04/21 21:57:55;;;;;;;19.63;12.57;;;12.40;87.30;;;;;;4914238;29;20148;-79
2021/04/21 22:00:22;;;;;;;18.58;11.85;;;12.50;86.80;;;;;;4913925;29;20476;-79
2021/04/21 22:02:48;;;;;;;17.15;11.80;;;12.50;86.70;;;;;;4932815;29;20488;-79
2021/04/21 22:05:45;;;;;;;20.33;12.50;;;12.50;86.60;;;;;;4914590;29;20076;-81
2021/04/21 22:08:11;;;;;;;20.27;11.77;;;12.30;87.20;;;;;;4916109;29;20055;-72
2021/04/21 22:10:37;;;;;;;16.05;11.23;;;12.40;87.20;;;;;;4914654;29;20051;-73
2021/04/21 22:13:03;;;;;;;19.48;12.20;;;12.40;87.20;;;;;;4909760;29;20032;-73
2021/04/21 22:15:31;;;;;;;17.73;11.93;;;12.40;87.00;;;;;;4911449;29;20031;-72
2021/04/21 22:17:58;;;;;;;22.65;12.40;;;12.40;88.00;;;;;;4911623;29;20071;-72
2021/04/21 22:20:26;;;;;;;19.70;13.02;;;12.40;87.30;;;;;;4910988;29;20576;-72
2021/04/21 22:22:55;;;;;;;18.52;12.35;;;12.20;87.70;;;;;;4906906;29;20029;-72
2021/04/21 22:25:22;;;;;;;19.58;12.63;;;12.20;87.90;;;;;;4876880;29;20691;-72
2021/04/21 22:27:48;;;;;;;18.13;11.77;;;12.20;88.00;;;;;;4893235;29;20037;-72
2021/04/21 22:30:29;;;;;;;19.42;11.95;;;12.20;87.70;;;;;;4877112;29;20092;-71
2021/04/21 22:32:55;;;;;;;21.65;12.75;;;12.30;87.80;;;;;;4906345;29;20104;-73
2021/04/21 22:35:21;;;;;;;19.02;11.88;;;12.30;87.60;;;;;;4899230;29;20084;-71
2021/04/21 22:37:51;;;;;;;23.60;12.73;;;12.40;87.60;;;;;;4920691;29;20424;-72
2021/04/21 22:40:18;;;;;;;17.33;12.45;;;12.40;87.20;;;;;;4903353;29;20031;-72
2021/04/21 22:42:44;;;;;;;19.00;12.57;;;12.40;87.30;;;;;;4904364;29;20652;-71
2021/04/21 22:45:17;;;;;;;17.90;11.88;;;12.50;87.40;;;;;;4920547;29;20032;-71
2021/04/21 22:47:43;;;;;;;18.42;12.60;;;12.40;87.50;;;;;;4899318;29;20055;-73
2021/04/21 22:50:13;;;;;;;19.02;11.80;;;12.40;87.30;;;;;;4905218;29;20032;-72
2021/04/21 22:52:44;;;;;;;18.45;11.80;;;12.40;87.20;;;;;;4922491;29;20031;-72
2021/04/21 22:55:16;;;;;;;20.88;12.63;;;12.40;87.40;;;;;;4924197;29;20639;-72
2021/04/21 22:57:42;;;;;;;21.70;12.82;;;12.40;87.60;;;;;;4901872;29;20021;-73
2021/04/21 23:00:09;;;;;;;17.00;11.65;;;12.40;87.80;;;;;;4923924;29;20028;-73
2021/04/21 23:02:35;;;;;;;18.75;11.95;;;12.40;88.90;;;;;;4920771;29;20024;-72
2021/04/21 23:05:01;;;;;;;17.13;11.65;;;12.40;88.40;;;;;;4912048;29;20080;-72
2021/04/21 23:07:26;;;;;;;18.98;11.73;;;12.30;88.80;;;;;;4879356;29;20432;-71
2021/04/21 23:09:52;;;;;;;19.25;12.27;;;12.20;88.90;;;;;;4896028;29;20548;-72
2021/04/21 23:12:18;;;;;;;19.65;12.30;;;12.30;89.20;;;;;;4897363;29;20104;-72
2021/04/21 23:14:44;;;;;;;17.73;12.15;;;12.30;89.50;;;;;;4915344;29;20046;-72
2021/04/21 23:17:09;;;;;;;19.65;11.90;;;12.30;90.10;;;;;;4915913;29;20029;-72
2021/04/21 23:19:35;;;;;;;19.30;11.68;;;12.20;89.90;;;;;;4914831;29;20036;-72
2021/04/21 23:22:01;;;;;;;19.52;12.60;;;12.20;90.00;;;;;;4912621;29;20147;-72
2021/04/21 23:24:27;;;;;;;19.45;12.13;;;12.20;90.10;;;;;;4910900;29;20035;-72
2021/04/21 23:26:53;;;;;;;20.92;12.38;;;12.20;90.10;;;;;;4925199;29;20024;-72
2021/04/21 23:29:19;;;;;;;20.20;13.18;;;12.20;90.30;;;;;;4922763;29;20036;-73
2021/04/21 23:31:44;;;;;;;21.92;12.15;;;12.20;90.20;;;;;;4923126;29;20020;-72
2021/04/21 23:34:10;;;;;;;22.45;12.70;;;12.30;90.30;;;;;;4923552;29;20045;-72
2021/04/21 23:36:36;;;;;;;16.83;11.95;;;12.30;90.30;;;;;;4927964;29;20030;-72
2021/04/21 23:39:02;;;;;;;22.73;12.15;;;12.20;90.50;;;;;;4924305;29;20384;-72
2021/04/21 23:41:28;;;;;;;21.58;12.95;;;12.20;90.90;;;;;;4921734;29;20066;-72
2021/04/21 23:43:54;;;;;;;18.27;12.38;;;12.00;91.10;;;;;;4924455;29;20483;-72
2021/04/21 23:46:20;;;;;;;19.52;11.93;;;12.10;91.10;;;;;;4908693;29;20551;-73
2021/04/21 23:48:45;;;;;;;20.58;12.98;;;12.10;91.30;;;;;;4925123;29;20027;-73
2021/04/21 23:51:11;;;;;;;20.70;13.48;;;12.10;91.40;;;;;;4906034;29;20023;-72
2021/04/21 23:53:40;;;;;;;20.48;12.35;;;12.10;91.50;;;;;;4927423;29;20106;-72
2021/04/21 23:56:06;;;;;;;19.73;12.15;;;12.20;91.50;;;;;;4907382;29;20031;-79
2021/04/21 23:58:32;;;;;;;17.25;11.98;;;12.20;91.60;;;;;;4924864;29;20040;-79
